sensor_id;sensor_type;location;lat;lon;timestamp;pressure;altitude;pressure_sealevel;temperature;humidity
21359;BME280;13506;50.852;20.632;2023-03-04T00:00:07;98119.94;;;-0.73;82.59
21359;BME280;13506;50.852;20.632;2023-03-04T00:02:58;98122.47;;;-0.72;83.38
21359;BME280;13506;50.852;20.632;2023-03-04T00:05:27;98100.16;;;-0.70;82.77
21359;BME280;13506;50.852;20.632;2023-03-04T00:07:56;98099.47;;;-0.75;81.78
21359;BME280;13506;50.852;20.632;2023-03-04T00:10:24;98091.81;;;-0.76;82.12
21359;BME280;13506;50.852;20.632;2023-03-04T00:12:52;98095.25;;;-0.77;83.24
21359;BME280;13506;50.852;20.632;2023-03-04T00:15:20;98099.47;;;-0.75;82.90
21359;BME280;13506;50.852;20.632;2023-03-04T00:17:48;98096.75;;;-0.70;82.43
21359;BME280;13506;50.852;20.632;2023-03-04T00:20:16;98093.06;;;-0.61;82.51
21359;BME280;13506;50.852;20.632;2023-03-04T00:22:45;98080.03;;;-0.55;82.51
21359;BME280;13506;50.852;20.632;2023-03-04T00:25:14;98076.41;;;-0.50;81.95
21359;BME280;13506;50.852;20.632;2023-03-04T00:27:42;98081.41;;;-0.45;82.09
21359;BME280;13506;50.852;20.632;2023-03-04T00:30:10;98078.06;;;-0.47;82.09
21359;BME280;13506;50.852;20.632;2023-03-04T00:32:39;98080.63;;;-0.47;82.02
21359;BME280;13506;50.852;20.632;2023-03-04T00:35:07;98062.53;;;-0.44;81.91
21359;BME280;13506;50.852;20.632;2023-03-04T00:37:35;98059.97;;;-0.44;81.50
21359;BME280;13506;50.852;20.632;2023-03-04T00:40:06;98067.78;;;-0.47;82.54
21359;BME280;13506;50.852;20.632;2023-03-04T00:42:34;98060.66;;;-0.39;82.14
21359;BME280;13506;50.852;20.632;2023-03-04T00:45:02;98054.50;;;-0.35;81.76
21359;BME280;13506;50.852;20.632;2023-03-04T00:47:30;98057.00;;;-0.32;82.05
21359;BME280;13506;50.852;20.632;2023-03-04T00:49:58;98060.34;;;-0.30;81.61
21359;BME280;13506;50.852;20.632;2023-03-04T00:52:25;98057.81;;;-0.31;81.82
21359;BME280;13506;50.852;20.632;2023-03-04T00:54:53;98055.97;;;-0.26;81.47
21359;BME280;13506;50.852;20.632;2023-03-04T00:57:22;98059.31;;;-0.24;81.28
21359;BME280;13506;50.852;20.632;2023-03-04T00:59:51;98046.41;;;-0.22;80.15
21359;BME280;13506;50.852;20.632;2023-03-04T01:02:18;98048.16;;;-0.25;80.47
21359;BME280;13506;50.852;20.632;2023-03-04T01:04:47;98046.59;;;-0.29;80.36
21359;BME280;13506;50.852;20.632;2023-03-04T01:07:15;98037.06;;;-0.25;80.54
21359;BME280;13506;50.852;20.632;2023-03-04T01:09:43;98037.22;;;-0.30;80.28
21359;BME280;13506;50.852;20.632;2023-03-04T01:12:11;98041.44;;;-0.29;80.09
21359;BME280;13506;50.852;20.632;2023-03-04T01:14:40;98047.53;;;-0.31;79.67
21359;BME280;13506;50.852;20.632;2023-03-04T01:17:08;98037.25;;;-0.31;80.00
21359;BME280;13506;50.852;20.632;2023-03-04T01:19:38;98025.25;;;-0.31;80.13
21359;BME280;13506;50.852;20.632;2023-03-04T01:22:05;98021.84;;;-0.31;80.31
21359;BME280;13506;50.852;20.632;2023-03-04T01:24:33;98021.00;;;-0.32;80.16
21359;BME280;13506;50.852;20.632;2023-03-04T01:27:02;98013.34;;;-0.33;80.30
21359;BME280;13506;50.852;20.632;2023-03-04T01:29:30;98010.81;;;-0.35;80.67
21359;BME280;13506;50.852;20.632;2023-03-04T01:31:59;98007.47;;;-0.37;80.97
21359;BME280;13506;50.852;20.632;2023-03-04T01:34:27;98002.94;;;-0.55;81.27
21359;BME280;13506;50.852;20.632;2023-03-04T01:36:57;97997.91;;;-0.58;81.37
21359;BME280;13506;50.852;20.632;2023-03-04T01:39:25;97988.56;;;-0.61;81.59
21359;BME280;13506;50.852;20.632;2023-03-04T01:41:53;97994.84;;;-0.70;81.48
21359;BME280;13506;50.852;20.632;2023-03-04T01:44:21;97975.19;;;-0.71;81.70
21359;BME280;13506;50.852;20.632;2023-03-04T01:46:52;97974.69;;;-0.82;82.69
21359;BME280;13506;50.852;20.632;2023-03-04T01:49:22;97966.31;;;-0.87;82.92
21359;BME280;13506;50.852;20.632;2023-03-04T01:51:52;97964.44;;;-0.82;83.14
21359;BME280;13506;50.852;20.632;2023-03-04T01:54:22;97967.91;;;-0.83;83.56
21359;BME280;13506;50.852;20.632;2023-03-04T01:56:51;97957.81;;;-0.89;83.51
21359;BME280;13506;50.852;20.632;2023-03-04T01:59:21;97957.22;;;-0.97;84.38
21359;BME280;13506;50.852;20.632;2023-03-04T02:01:51;97949.53;;;-0.97;84.69
21359;BME280;13506;50.852;20.632;2023-03-04T02:04:23;97946.91;;;-0.96;84.45
21359;BME280;13506;50.852;20.632;2023-03-04T02:06:52;97934.13;;;-0.97;84.27
21359;BME280;13506;50.852;20.632;2023-03-04T02:09:22;97939.88;;;-0.91;84.28
21359;BME280;13506;50.852;20.632;2023-03-04T02:11:51;97943.44;;;-0.95;85.02
21359;BME280;13506;50.852;20.632;2023-03-04T02:14:20;97936.44;;;-0.90;84.90
21359;BME280;13506;50.852;20.632;2023-03-04T02:16:49;97934.59;;;-0.86;84.60
21359;BME280;13506;50.852;20.632;2023-03-04T02:19:28;97932.75;;;-0.81;84.44
21359;BME280;13506;50.852;20.632;2023-03-04T02:21:58;97923.38;;;-0.83;84.63
21359;BME280;13506;50.852;20.632;2023-03-04T02:24:31;97947.25;;;-0.80;84.58
21359;BME280;13506;50.852;20.632;2023-03-04T02:27:03;97936.88;;;-0.77;84.87
21359;BME280;13506;50.852;20.632;2023-03-04T02:29:32;97931.59;;;-0.72;85.14
21359;BME280;13506;50.852;20.632;2023-03-04T02:32:00;97936.66;;;-0.71;84.38
21359;BME280;13506;50.852;20.632;2023-03-04T02:34:30;97929.03;;;-0.72;85.33
21359;BME280;13506;50.852;20.632;2023-03-04T02:37:00;97928.19;;;-0.73;84.89
21359;BME280;13506;50.852;20.632;2023-03-04T02:39:32;97918.84;;;-0.75;85.13
21359;BME280;13506;50.852;20.632;2023-03-04T02:42:02;97925.91;;;-0.82;85.99
21359;BME280;13506;50.852;20.632;2023-03-04T02:44:35;97922.41;;;-0.79;85.78
21359;BME280;13506;50.852;20.632;2023-03-04T02:47:06;97926.69;;;-0.80;86.45
21359;BME280;13506;50.852;20.632;2023-03-04T02:49:37;97904.56;;;-0.84;87.38
21359;BME280;13506;50.852;20.632;2023-03-04T02:52:08;97910.63;;;-0.85;87.63
21359;BME280;13506;50.852;20.632;2023-03-04T02:54:37;97895.94;;;-0.81;87.57
21359;BME280;13506;50.852;20.632;2023-03-04T02:57:09;97900.44;;;-0.88;87.63
21359;BME280;13506;50.852;20.632;2023-03-04T02:59:40;97899.34;;;-0.81;87.18
21359;BME280;13506;50.852;20.632;2023-03-04T03:02:12;97893.34;;;-0.81;87.48
21359;BME280;13506;50.852;20.632;2023-03-04T03:04:40;97897.66;;;-0.82;87.44
21359;BME280;13506;50.852;20.632;2023-03-04T03:07:12;97895.06;;;-0.80;87.75
21359;BME280;13506;50.852;20.632;2023-03-04T03:09:41;97895.88;;;-0.80;87.60
21359;BME280;13506;50.852;20.632;2023-03-04T03:12:10;97892.31;;;-0.76;87.88
21359;BME280;13506;50.852;20.632;2023-03-04T03:14:38;97880.16;;;-0.71;87.70
21359;BME280;13506;50.852;20.632;2023-03-04T03:17:08;97890.16;;;-0.63;87.21
21359;BME280;13506;50.852;20.632;2023-03-04T03:19:37;97881.47;;;-0.59;86.87
21359;BME280;13506;50.852;20.632;2023-03-04T03:22:07;97896.13;;;-0.62;86.78
21359;BME280;13506;50.852;20.632;2023-03-04T03:24:35;97893.56;;;-0.62;86.50
21359;BME280;13506;50.852;20.632;2023-03-04T03:27:03;97886.66;;;-0.60;86.29
21359;BME280;13506;50.852;20.632;2023-03-04T03:29:32;97886.78;;;-0.63;87.09
21359;BME280;13506;50.852;20.632;2023-03-04T03:32:00;97884.22;;;-0.63;86.85
21359;BME280;13506;50.852;20.632;2023-03-04T03:34:28;97876.59;;;-0.67;87.22
21359;BME280;13506;50.852;20.632;2023-03-04T03:36:56;97882.00;;;-0.74;88.40
21359;BME280;13506;50.852;20.632;2023-03-04T03:39:24;97886.41;;;-0.78;87.75
21359;BME280;13506;50.852;20.632;2023-03-04T03:41:52;97876.81;;;-0.73;88.21
21359;BME280;13506;50.852;20.632;2023-03-04T03:44:20;97867.25;;;-0.69;87.43
21359;BME280;13506;50.852;20.632;2023-03-04T03:47:18;97862.03;;;-0.91;88.42
21359;BME280;13506;50.852;20.632;2023-03-04T03:49:46;97869.22;;;-0.76;88.11
21359;BME280;13506;50.852;20.632;2023-03-04T03:52:14;97863.28;;;-0.78;87.41
21359;BME280;13506;50.852;20.632;2023-03-04T03:54:42;97870.13;;;-0.77;87.87
21359;BME280;13506;50.852;20.632;2023-03-04T03:57:10;97841.00;;;-0.77;86.90
21359;BME280;13506;50.852;20.632;2023-03-04T03:59:38;97849.56;;;-0.77;86.79
21359;BME280;13506;50.852;20.632;2023-03-04T04:02:06;97851.28;;;-0.77;86.86
21359;BME280;13506;50.852;20.632;2023-03-04T04:04:35;97845.09;;;-0.72;87.06
21359;BME280;13506;50.852;20.632;2023-03-04T04:07:03;97833.88;;;-0.69;87.12
21359;BME280;13506;50.852;20.632;2023-03-04T04:09:31;97830.66;;;-0.74;88.40
21359;BME280;13506;50.852;20.632;2023-03-04T04:11:59;97827.16;;;-0.73;88.24
21359;BME280;13506;50.852;20.632;2023-03-04T04:14:27;97829.84;;;-0.76;87.47
21359;BME280;13506;50.852;20.632;2023-03-04T04:16:55;97824.69;;;-0.75;87.79
21359;BME280;13506;50.852;20.632;2023-03-04T04:19:23;97824.81;;;-0.79;87.86
21359;BME280;13506;50.852;20.632;2023-03-04T04:21:53;97818.09;;;-0.83;87.04
21359;BME280;13506;50.852;20.632;2023-03-04T04:24:21;97822.63;;;-0.90;87.56
21359;BME280;13506;50.852;20.632;2023-03-04T04:26:49;97808.94;;;-0.91;87.28
21359;BME280;13506;50.852;20.632;2023-03-04T04:29:17;97815.03;;;-0.93;86.98
21359;BME280;13506;50.852;20.632;2023-03-04T04:31:45;97799.00;;;-1.00;87.28
21359;BME280;13506;50.852;20.632;2023-03-04T04:34:13;97819.59;;;-1.01;87.62
21359;BME280;13506;50.852;20.632;2023-03-04T04:36:41;97803.28;;;-1.00;87.31
21359;BME280;13506;50.852;20.632;2023-03-04T04:39:11;97814.59;;;-1.04;87.55
21359;BME280;13506;50.852;20.632;2023-03-04T04:41:41;97816.69;;;-1.17;87.63
21359;BME280;13506;50.852;20.632;2023-03-04T04:44:11;97784.81;;;-1.10;87.75
21359;BME280;13506;50.852;20.632;2023-03-04T04:46:40;97805.31;;;-1.09;87.17
21359;BME280;13506;50.852;20.632;2023-03-04T04:49:08;97787.59;;;-1.43;86.64
21359;BME280;13506;50.852;20.632;2023-03-04T04:51:38;97790.19;;;-1.18;87.44
21359;BME280;13506;50.852;20.632;2023-03-04T04:54:07;97797.06;;;-1.18;87.11
21359;BME280;13506;50.852;20.632;2023-03-04T04:56:36;97778.09;;;-1.14;86.70
21359;BME280;13506;50.852;20.632;2023-03-04T04:59:05;97782.22;;;-1.09;86.36
21359;BME280;13506;50.852;20.632;2023-03-04T05:01:35;97781.97;;;-1.02;86.18
21359;BME280;13506;50.852;20.632;2023-03-04T05:04:03;97798.44;;;-1.08;85.62
21359;BME280;13506;50.852;20.632;2023-03-04T05:06:31;97783.25;;;-1.14;86.42
21359;BME280;13506;50.852;20.632;2023-03-04T05:08:59;97786.63;;;-1.14;85.81
21359;BME280;13506;50.852;20.632;2023-03-04T05:11:27;97776.28;;;-1.11;85.62
21359;BME280;13506;50.852;20.632;2023-03-04T05:13:57;97770.44;;;-1.16;85.97
21359;BME280;13506;50.852;20.632;2023-03-04T05:16:25;97774.56;;;-1.10;85.70
21359;BME280;13506;50.852;20.632;2023-03-04T05:18:53;97760.09;;;-1.13;85.69
21359;BME280;13506;50.852;20.632;2023-03-04T05:21:22;97772.84;;;-1.11;85.96
21359;BME280;13506;50.852;20.632;2023-03-04T05:23:52;97774.59;;;-1.12;85.91
21359;BME280;13506;50.852;20.632;2023-03-04T05:26:20;97768.47;;;-1.08;84.94
21359;BME280;13506;50.852;20.632;2023-03-04T05:28:49;97785.44;;;-1.03;84.48
21359;BME280;13506;50.852;20.632;2023-03-04T05:31:18;97791.97;;;-0.95;85.39
21359;BME280;13506;50.852;20.632;2023-03-04T05:33:46;97795.28;;;-0.91;85.05
21359;BME280;13506;50.852;20.632;2023-03-04T05:36:14;97796.94;;;-0.90;84.41
21359;BME280;13506;50.852;20.632;2023-03-04T05:38:42;97799.44;;;-0.87;84.75
21359;BME280;13506;50.852;20.632;2023-03-04T05:41:10;97798.53;;;-0.86;84.36
21359;BME280;13506;50.852;20.632;2023-03-04T05:43:38;97811.34;;;-0.86;84.16
21359;BME280;13506;50.852;20.632;2023-03-04T05:46:08;97817.56;;;-0.92;84.49
21359;BME280;13506;50.852;20.632;2023-03-04T05:48:41;97805.44;;;-0.88;84.13
21359;BME280;13506;50.852;20.632;2023-03-04T05:51:09;97807.97;;;-0.87;84.84
21359;BME280;13506;50.852;20.632;2023-03-04T05:53:38;97808.69;;;-0.83;84.58
21359;BME280;13506;50.852;20.632;2023-03-04T05:56:08;97817.19;;;-0.81;84.56
21359;BME280;13506;50.852;20.632;2023-03-04T05:58:36;97807.00;;;-0.84;84.96
21359;BME280;13506;50.852;20.632;2023-03-04T06:01:05;97813.72;;;-0.80;84.17
21359;BME280;13506;50.852;20.632;2023-03-04T06:03:33;97811.09;;;-0.78;84.37
21359;BME280;13506;50.852;20.632;2023-03-04T06:06:03;97822.31;;;-0.81;84.33
21359;BME280;13506;50.852;20.632;2023-03-04T06:08:31;97819.75;;;-0.81;83.68
21359;BME280;13506;50.852;20.632;2023-03-04T06:10:59;97816.31;;;-0.81;84.83
21359;BME280;13506;50.852;20.632;2023-03-04T06:13:28;97827.34;;;-0.78;84.26
21359;BME280;13506;50.852;20.632;2023-03-04T06:15:57;97827.34;;;-0.78;83.67
21359;BME280;13506;50.852;20.632;2023-03-04T06:18:26;97822.19;;;-0.78;84.19
21359;BME280;13506;50.852;20.632;2023-03-04T06:20:56;97822.13;;;-0.75;84.13
21359;BME280;13506;50.852;20.632;2023-03-04T06:23:27;97830.47;;;-0.70;83.89
21359;BME280;13506;50.852;20.632;2023-03-04T06:25:57;97836.44;;;-0.69;83.33
21359;BME280;13506;50.852;20.632;2023-03-04T06:28:26;97834.66;;;-0.67;83.37
21359;BME280;13506;50.852;20.632;2023-03-04T06:30:55;97840.75;;;-0.70;83.51
21359;BME280;13506;50.852;20.632;2023-03-04T06:33:23;97836.22;;;-0.63;82.82
21359;BME280;13506;50.852;20.632;2023-03-04T06:35:53;97826.91;;;-0.66;83.20
21359;BME280;13506;50.852;20.632;2023-03-04T06:38:22;97835.50;;;-0.67;83.41
21359;BME280;13506;50.852;20.632;2023-03-04T06:40:51;97837.06;;;-0.62;83.07
21359;BME280;13506;50.852;20.632;2023-03-04T06:43:22;97821.78;;;-0.66;83.02
21359;BME280;13506;50.852;20.632;2023-03-04T06:45:50;97825.34;;;-0.70;82.87
21359;BME280;13506;50.852;20.632;2023-03-04T06:48:18;97830.47;;;-0.70;82.70
21359;BME280;13506;50.852;20.632;2023-03-04T06:50:46;97832.25;;;-0.72;83.23
21359;BME280;13506;50.852;20.632;2023-03-04T06:53:14;97819.41;;;-0.72;82.51
21359;BME280;13506;50.852;20.632;2023-03-04T06:55:41;97828.69;;;-0.68;82.82
21359;BME280;13506;50.852;20.632;2023-03-04T06:58:11;97822.94;;;-0.74;82.56
21359;BME280;13506;50.852;20.632;2023-03-04T07:00:39;97826.97;;;-0.67;83.22
21359;BME280;13506;50.852;20.632;2023-03-04T07:03:09;97825.22;;;-0.67;82.89
21359;BME280;13506;50.852;20.632;2023-03-04T07:05:37;97828.75;;;-0.69;83.11
21359;BME280;13506;50.852;20.632;2023-03-04T07:08:05;97825.09;;;-0.62;82.83
21359;BME280;13506;50.852;20.632;2023-03-04T07:10:34;97825.88;;;-0.60;82.91
21359;BME280;13506;50.852;20.632;2023-03-04T07:13:02;97824.97;;;-0.59;83.26
21359;BME280;13506;50.852;20.632;2023-03-04T07:15:31;97810.56;;;-0.63;82.70
21359;BME280;13506;50.852;20.632;2023-03-04T07:17:59;97817.31;;;-0.60;82.17
21359;BME280;13506;50.852;20.632;2023-03-04T07:20:29;97825.34;;;-0.70;83.45
21359;BME280;13506;50.852;20.632;2023-03-04T07:22:57;97816.50;;;-0.62;83.22
21359;BME280;13506;50.852;20.632;2023-03-04T07:25:25;97823.22;;;-0.58;82.45
21359;BME280;13506;50.852;20.632;2023-03-04T07:27:53;97815.22;;;-0.49;83.00
21359;BME280;13506;50.852;20.632;2023-03-04T07:30:21;97819.34;;;-0.45;82.16
21359;BME280;13506;50.852;20.632;2023-03-04T07:32:50;97814.91;;;-0.41;82.72
21359;BME280;13506;50.852;20.632;2023-03-04T07:35:18;97816.56;;;-0.39;81.73
21359;BME280;13506;50.852;20.632;2023-03-04T07:37:46;97821.63;;;-0.37;82.38
21359;BME280;13506;50.852;20.632;2023-03-04T07:40:14;97816.41;;;-0.36;81.35
21359;BME280;13506;50.852;20.632;2023-03-04T07:42:42;97812.63;;;-0.26;81.16
21359;BME280;13506;50.852;20.632;2023-03-04T07:45:15;97819.59;;;-0.29;81.26
21359;BME280;13506;50.852;20.632;2023-03-04T07:47:43;97810.78;;;-0.22;81.37
21359;BME280;13506;50.852;20.632;2023-03-04T07:50:13;97795.25;;;-0.19;80.77
21359;BME280;13506;50.852;20.632;2023-03-04T07:52:43;97809.03;;;-0.21;80.54
21359;BME280;13506;50.852;20.632;2023-03-04T07:55:14;97781.84;;;-0.27;80.77
21359;BME280;13506;50.852;20.632;2023-03-04T07:57:43;97803.94;;;-0.23;80.88
21359;BME280;13506;50.852;20.632;2023-03-04T08:00:14;97810.88;;;-0.25;80.74
21359;BME280;13506;50.852;20.632;2023-03-04T08:02:43;97798.81;;;-0.23;80.75
21359;BME280;13506;50.852;20.632;2023-03-04T08:05:12;97795.41;;;-0.24;81.02
21359;BME280;13506;50.852;20.632;2023-03-04T08:07:40;97813.41;;;-0.24;80.40
21359;BME280;13506;50.852;20.632;2023-03-04T08:10:10;97799.88;;;-0.29;80.43
21359;BME280;13506;50.852;20.632;2023-03-04T08:12:39;97802.34;;;-0.26;79.95
21359;BME280;13506;50.852;20.632;2023-03-04T08:15:07;97808.50;;;-0.30;80.08
21359;BME280;13506;50.852;20.632;2023-03-04T08:17:36;97798.88;;;-0.25;80.15
21359;BME280;13506;50.852;20.632;2023-03-04T08:20:05;97802.41;;;-0.27;80.23
21359;BME280;13506;50.852;20.632;2023-03-04T08:22:35;97806.19;;;-0.37;80.36
21359;BME280;13506;50.852;20.632;2023-03-04T08:25:03;97813.72;;;-0.33;80.09
21359;BME280;13506;50.852;20.632;2023-03-04T08:27:31;97816.97;;;-0.28;79.48
21359;BME280;13506;50.852;20.632;2023-03-04T08:29:59;97821.22;;;-0.27;79.68
21359;BME280;13506;50.852;20.632;2023-03-04T08:32:27;97816.63;;;-0.18;80.09
21359;BME280;13506;50.852;20.632;2023-03-04T08:34:55;97815.56;;;-0.13;79.50
21359;BME280;13506;50.852;20.632;2023-03-04T08:37:23;97805.88;;;-0.06;79.36
21359;BME280;13506;50.852;20.632;2023-03-04T08:39:52;97793.94;;;-0.07;79.18
21359;BME280;13506;50.852;20.632;2023-03-04T08:42:20;97807.56;;;-0.05;78.90
21359;BME280;13506;50.852;20.632;2023-03-04T08:44:49;97792.44;;;-0.13;79.04
21359;BME280;13506;50.852;20.632;2023-03-04T08:47:18;97794.19;;;-0.13;79.33
21359;BME280;13506;50.852;20.632;2023-03-04T08:49:45;97783.66;;;-0.07;79.16
21359;BME280;13506;50.852;20.632;2023-03-04T08:52:14;97782.56;;;-0.01;79.25
21359;BME280;13506;50.852;20.632;2023-03-04T08:54:41;97802.41;;;-0.05;78.97
21359;BME280;13506;50.852;20.632;2023-03-04T08:57:11;97786.75;;;0.01;78.55
21359;BME280;13506;50.852;20.632;2023-03-04T08:59:39;97789.22;;;0.04;78.16
21359;BME280;13506;50.852;20.632;2023-03-04T09:02:08;97786.59;;;0.06;78.37
21359;BME280;13506;50.852;20.632;2023-03-04T09:04:36;97794.81;;;0.14;78.22
21359;BME280;13506;50.852;20.632;2023-03-04T09:07:04;97786.88;;;-0.02;77.93
21359;BME280;13506;50.852;20.632;2023-03-04T09:09:32;97805.28;;;0.09;78.37
21359;BME280;13506;50.852;20.632;2023-03-04T09:12:01;97798.66;;;0.04;78.56
21359;BME280;13506;50.852;20.632;2023-03-04T09:14:30;97783.13;;;0.07;78.40
21359;BME280;13506;50.852;20.632;2023-03-04T09:17:01;97798.72;;;0.02;78.00
21359;BME280;13506;50.852;20.632;2023-03-04T09:19:29;97785.13;;;-0.01;77.93
21359;BME280;13506;50.852;20.632;2023-03-04T09:21:58;97786.69;;;0.03;78.25
21359;BME280;13506;50.852;20.632;2023-03-04T09:24:26;97790.97;;;0.04;78.20
21359;BME280;13506;50.852;20.632;2023-03-04T09:26:54;97785.81;;;0.04;78.45
21359;BME280;13506;50.852;20.632;2023-03-04T09:29:23;97793.44;;;0.05;78.57
21359;BME280;13506;50.852;20.632;2023-03-04T09:31:52;97790.72;;;0.10;77.75
21359;BME280;13506;50.852;20.632;2023-03-04T09:34:20;97790.09;;;0.03;78.34
21359;BME280;13506;50.852;20.632;2023-03-04T09:36:48;97780.53;;;0.07;78.54
21359;BME280;13506;50.852;20.632;2023-03-04T09:39:15;97784.63;;;0.12;77.86
21359;BME280;13506;50.852;20.632;2023-03-04T09:41:46;97787.97;;;0.14;78.05
21359;BME280;13506;50.852;20.632;2023-03-04T09:44:22;97782.59;;;0.21;78.08
21359;BME280;13506;50.852;20.632;2023-03-04T09:46:56;97779.94;;;0.22;77.63
21359;BME280;13506;50.852;20.632;2023-03-04T09:49:25;97784.25;;;0.22;77.23
21359;BME280;13506;50.852;20.632;2023-03-04T09:52:04;97784.13;;;0.25;77.20
21359;BME280;13506;50.852;20.632;2023-03-04T09:54:58;97772.28;;;0.21;77.64
21359;BME280;13506;50.852;20.632;2023-03-04T09:57:39;97771.56;;;0.17;77.84
21359;BME280;13506;50.852;20.632;2023-03-04T10:00:13;97765.69;;;0.13;77.60
21359;BME280;13506;50.852;20.632;2023-03-04T10:03:04;97767.25;;;0.17;77.67
21359;BME280;13506;50.852;20.632;2023-03-04T10:05:38;97769.06;;;0.15;77.39
21359;BME280;13506;50.852;20.632;2023-03-04T10:08:34;97767.97;;;0.21;77.79
21359;BME280;13506;50.852;20.632;2023-03-04T10:11:08;97769.09;;;0.14;77.98
21359;BME280;13506;50.852;20.632;2023-03-04T10:13:42;97755.56;;;0.10;77.55
21359;BME280;13506;50.852;20.632;2023-03-04T10:16:17;97742.88;;;0.06;77.89
21359;BME280;13506;50.852;20.632;2023-03-04T10:18:52;97747.88;;;0.09;78.90
21359;BME280;13506;50.852;20.632;2023-03-04T10:21:29;97740.75;;;0.15;77.94
21359;BME280;13506;50.852;20.632;2023-03-04T10:23:59;97753.69;;;0.14;78.38
21359;BME280;13506;50.852;20.632;2023-03-04T10:26:30;97743.34;;;0.15;78.42
21359;BME280;13506;50.852;20.632;2023-03-04T10:28:59;97738.66;;;0.25;78.12
21359;BME280;13506;50.852;20.632;2023-03-04T10:31:32;97736.78;;;0.29;78.29
21359;BME280;13506;50.852;20.632;2023-03-04T10:34:04;97735.59;;;0.37;78.25
21359;BME280;13506;50.852;20.632;2023-03-04T10:36:43;97741.19;;;0.47;78.12
21359;BME280;13506;50.852;20.632;2023-03-04T10:39:20;97732.50;;;0.50;77.77
21359;BME280;13506;50.852;20.632;2023-03-04T10:41:55;97729.16;;;0.48;77.64
21359;BME280;13506;50.852;20.632;2023-03-04T10:44:24;97726.97;;;0.38;78.45
21359;BME280;13506;50.852;20.632;2023-03-04T10:46:55;97719.16;;;0.42;78.29
21359;BME280;13506;50.852;20.632;2023-03-04T10:49:26;97723.22;;;0.46;78.37
21359;BME280;13506;50.852;20.632;2023-03-04T10:52:02;97711.72;;;0.34;78.34
21359;BME280;13506;50.852;20.632;2023-03-04T10:54:33;97714.78;;;0.44;78.32
21359;BME280;13506;50.852;20.632;2023-03-04T10:57:04;97710.31;;;0.47;78.76
21359;BME280;13506;50.852;20.632;2023-03-04T10:59:42;97707.75;;;0.47;78.63
21359;BME280;13506;50.852;20.632;2023-03-04T11:02:18;97699.13;;;0.48;78.97
21359;BME280;13506;50.852;20.632;2023-03-04T11:04:56;97698.72;;;0.57;78.55
21359;BME280;13506;50.852;20.632;2023-03-04T11:07:35;97691.06;;;0.56;78.26
21359;BME280;13506;50.852;20.632;2023-03-04T11:10:15;97696.69;;;0.66;77.95
21359;BME280;13506;50.852;20.632;2023-03-04T11:12:48;97696.94;;;0.60;78.51
21359;BME280;13506;50.852;20.632;2023-03-04T11:15:19;97682.66;;;0.52;78.31
21359;BME280;13506;50.852;20.632;2023-03-04T11:17:53;97681.56;;;0.58;79.68
21359;BME280;13506;50.852;20.632;2023-03-04T11:20:30;97680.53;;;0.62;79.39
21359;BME280;13506;50.852;20.632;2023-03-04T11:23:03;97680.25;;;0.68;79.04
21359;BME280;13506;50.852;20.632;2023-03-04T11:25:34;97682.78;;;0.70;78.62
21359;BME280;13506;50.852;20.632;2023-03-04T11:28:05;97686.13;;;0.72;79.27
21359;BME280;13506;50.852;20.632;2023-03-04T11:30:41;97681.84;;;0.71;79.14
21359;BME280;13506;50.852;20.632;2023-03-04T11:33:25;97676.44;;;0.77;79.04
21359;BME280;13506;50.852;20.632;2023-03-04T11:36:08;97672.97;;;0.78;79.49
21359;BME280;13506;50.852;20.632;2023-03-04T11:38:45;97669.13;;;0.88;78.76
21359;BME280;13506;50.852;20.632;2023-03-04T11:41:16;97659.44;;;0.93;79.14
21359;BME280;13506;50.852;20.632;2023-03-04T11:43:47;97651.56;;;0.96;79.22
21359;BME280;13506;50.852;20.632;2023-03-04T11:46:53;97651.16;;;1.06;79.11
21359;BME280;13506;50.852;20.632;2023-03-04T11:52:46;97650.34;;;1.05;79.31
21359;BME280;13506;50.852;20.632;2023-03-04T11:55:28;97654.84;;;1.00;79.55
21359;BME280;13506;50.852;20.632;2023-03-04T11:58:09;97652.19;;;1.02;79.39
21359;BME280;13506;50.852;20.632;2023-03-04T12:00:50;97636.31;;;0.92;79.98
21359;BME280;13506;50.852;20.632;2023-03-04T12:03:41;97638.00;;;1.12;80.25
21359;BME280;13506;50.852;20.632;2023-03-04T12:06:13;97647.16;;;0.98;80.89
21359;BME280;13506;50.852;20.632;2023-03-04T12:08:58;97639.59;;;0.95;81.55
21359;BME280;13506;50.852;20.632;2023-03-04T12:11:39;97637.38;;;1.07;81.03
21359;BME280;13506;50.852;20.632;2023-03-04T12:14:19;97631.94;;;1.13;81.29
21359;BME280;13506;50.852;20.632;2023-03-04T12:19:53;97621.34;;;1.19;81.64
21359;BME280;13506;50.852;20.632;2023-03-04T12:22:36;97621.50;;;1.16;81.86
21359;BME280;13506;50.852;20.632;2023-03-04T12:25:36;97620.59;;;1.17;82.05
21359;BME280;13506;50.852;20.632;2023-03-04T12:28:25;97622.94;;;1.22;82.66
21359;BME280;13506;50.852;20.632;2023-03-04T12:31:33;97610.84;;;1.24;82.63
21359;BME280;13506;50.852;20.632;2023-03-04T12:34:26;97603.81;;;1.27;83.18
21359;BME280;13506;50.852;20.632;2023-03-04T12:37:19;97604.03;;;1.23;84.31
21359;BME280;13506;50.852;20.632;2023-03-04T12:40:05;97611.06;;;1.19;84.32
21359;BME280;13506;50.852;20.632;2023-03-04T12:42:59;97599.22;;;1.15;84.89
21359;BME280;13506;50.852;20.632;2023-03-04T12:45:38;97602.06;;;1.09;85.83
21359;BME280;13506;50.852;20.632;2023-03-04T12:48:17;97607.22;;;1.09;85.93
21359;BME280;13506;50.852;20.632;2023-03-04T12:50:54;97610.34;;;1.15;86.53
21359;BME280;13506;50.852;20.632;2023-03-04T12:53:29;97597.41;;;1.17;86.98
21359;BME280;13506;50.852;20.632;2023-03-04T12:56:00;97594.06;;;1.15;87.34
21359;BME280;13506;50.852;20.632;2023-03-04T12:58:32;97599.09;;;1.18;87.06
21359;BME280;13506;50.852;20.632;2023-03-04T13:01:06;97599.97;;;1.17;87.61
21359;BME280;13506;50.852;20.632;2023-03-04T13:03:43;97594.00;;;1.16;87.55
21359;BME280;13506;50.852;20.632;2023-03-04T13:06:23;97593.19;;;1.16;87.96
21359;BME280;13506;50.852;20.632;2023-03-04T13:09:01;97592.91;;;1.22;87.49
21359;BME280;13506;50.852;20.632;2023-03-04T13:11:53;97596.34;;;1.21;88.08
21359;BME280;13506;50.852;20.632;2023-03-04T13:14:29;97596.69;;;1.13;87.82
21359;BME280;13506;50.852;20.632;2023-03-04T13:17:00;97601.31;;;1.07;88.80
21359;BME280;13506;50.852;20.632;2023-03-04T13:19:49;97586.41;;;0.94;89.48